createdAt,value
2017-09-15T00:00:40.831Z,15.23
2017-09-15T00:03:07.459Z,16.40
2017-09-15T00:05:34.073Z,17.63
2017-09-15T00:08:00.700Z,22.50
2017-09-15T00:10:27.314Z,16.87
2017-09-15T00:12:53.942Z,18.30
2017-09-15T00:15:20.598Z,17.20
2017-09-15T00:17:47.220Z,29.03
2017-09-15T00:20:13.867Z,21.40
2017-09-15T00:22:40.495Z,21.80
2017-09-15T00:25:07.119Z,16.40
2017-09-15T00:27:33.775Z,27.53
2017-09-15T00:30:00.407Z,15.10
2017-09-15T00:32:27.054Z,19.93
2017-09-15T00:34:53.678Z,16.73
2017-09-15T00:37:20.339Z,17.97
2017-09-15T00:39:46.948Z,19.70
2017-09-15T00:42:13.546Z,18.60
2017-09-15T00:44:40.199Z,21.70
2017-09-15T00:47:06.799Z,12.80
2017-09-15T00:49:33.420Z,12.73
2017-09-15T00:52:00.040Z,20.10
2017-09-15T00:54:26.668Z,14.17
2017-09-15T00:56:53.270Z,14.23
2017-09-15T00:59:19.909Z,19.80
2017-09-15T01:01:46.514Z,12.60
2017-09-15T01:04:13.139Z,30.77
2017-09-15T01:06:39.772Z,13.20
2017-09-15T01:09:06.409Z,14.30
2017-09-15T01:11:33.036Z,17.00
2017-09-15T01:13:59.675Z,14.27
2017-09-15T01:16:26.328Z,14.17
2017-09-15T01:18:52.935Z,12.03
2017-09-15T01:21:19.564Z,15.10
2017-09-15T01:23:46.176Z,14.53
2017-09-15T01:26:12.805Z,12.97
2017-09-15T01:28:39.418Z,15.03
2017-09-15T01:31:06.069Z,13.77
2017-09-15T01:33:33.076Z,19.00
2017-09-15T01:35:59.689Z,9.53
2017-09-15T01:38:26.309Z,10.27
2017-09-15T01:40:52.943Z,13.27
2017-09-15T01:43:19.597Z,14.87
2017-09-15T01:45:46.213Z,12.50
2017-09-15T01:48:12.833Z,14.80
2017-09-15T01:50:39.510Z,15.73
2017-09-15T01:53:06.123Z,15.43
2017-09-15T01:55:32.747Z,16.27
2017-09-15T01:57:59.378Z,11.10
2017-09-15T02:00:26.002Z,11.67
2017-09-15T02:02:52.623Z,13.70
2017-09-15T02:05:19.245Z,11.03
2017-09-15T02:07:45.875Z,16.97
2017-09-15T02:10:12.487Z,16.27
2017-09-15T02:12:39.136Z,12.90
2017-09-15T02:15:05.738Z,14.83
2017-09-15T02:17:32.374Z,18.47
2017-09-15T02:19:58.988Z,16.03
2017-09-15T02:22:25.632Z,13.77
2017-09-15T02:24:52.254Z,15.30
2017-09-15T02:27:18.910Z,15.13
2017-09-15T02:29:45.528Z,14.80
2017-09-15T02:32:12.190Z,15.87
2017-09-15T02:34:38.835Z,14.77
2017-09-15T02:37:05.507Z,16.43
2017-09-15T02:39:32.121Z,24.30
2017-09-15T02:41:58.750Z,20.77
2017-09-15T02:44:25.380Z,23.87
2017-09-15T02:46:52.006Z,21.67
2017-09-15T02:49:18.657Z,17.80
2017-09-15T02:51:45.283Z,18.80
2017-09-15T02:54:11.926Z,14.43
2017-09-15T02:56:38.555Z,27.30
2017-09-15T02:59:05.162Z,23.67
2017-09-15T03:01:31.814Z,26.13
2017-09-15T03:03:58.426Z,26.37
2017-09-15T03:06:25.078Z,20.97
2017-09-15T03:08:51.712Z,22.90
2017-09-15T03:11:18.354Z,30.70
2017-09-15T03:13:44.987Z,22.07
2017-09-15T03:16:11.612Z,23.43
2017-09-15T03:18:38.243Z,25.20
2017-09-15T03:21:04.854Z,23.47
2017-09-15T03:23:31.471Z,21.03
2017-09-15T03:25:58.125Z,20.50
2017-09-15T03:28:24.760Z,24.73
2017-09-15T03:30:51.424Z,20.87
2017-09-15T03:33:18.034Z,18.00
2017-09-15T03:35:44.684Z,23.87
2017-09-15T03:38:11.331Z,20.43
2017-09-15T03:40:37.985Z,22.23
2017-09-15T03:43:04.605Z,24.23
2017-09-15T03:45:31.247Z,26.47
2017-09-15T03:47:57.860Z,22.73
2017-09-15T03:50:24.498Z,24.40
2017-09-15T03:52:51.130Z,23.33
2017-09-15T03:55:17.767Z,28.60
2017-09-15T03:57:44.394Z,17.90
2017-09-15T04:00:11.014Z,24.33
2017-09-15T04:02:37.635Z,21.40
2017-09-15T04:05:04.277Z,28.13
2017-09-15T04:07:30.885Z,18.70
2017-09-15T04:09:57.516Z,23.87
2017-09-15T04:12:24.135Z,27.67
2017-09-15T04:14:50.767Z,19.07
2017-09-15T04:17:17.418Z,20.17
2017-09-15T04:19:44.063Z,19.53
2017-09-15T04:22:10.712Z,19.90
2017-09-15T04:24:37.331Z,17.13
2017-09-15T04:27:03.964Z,16.00
2017-09-15T04:29:30.611Z,18.00
2017-09-15T04:31:57.279Z,14.20
2017-09-15T04:34:23.887Z,12.60
2017-09-15T04:36:50.531Z,18.10
2017-09-15T04:39:17.163Z,15.00
2017-09-15T04:41:43.774Z,17.90
2017-09-15T04:44:10.431Z,18.87
2017-09-15T04:46:37.058Z,15.20
2017-09-15T04:49:03.672Z,15.50
2017-09-15T04:51:30.300Z,16.30
2017-09-15T04:53:56.931Z,14.10
2017-09-15T04:56:23.564Z,22.37
2017-09-15T04:58:50.184Z,14.83
2017-09-15T05:01:16.836Z,19.00
2017-09-15T05:03:43.442Z,13.73
2017-09-15T05:06:10.071Z,16.47
2017-09-15T05:08:36.703Z,15.50
2017-09-15T05:11:03.331Z,15.03
2017-09-15T05:13:29.951Z,14.37
2017-09-15T05:15:56.579Z,12.07
2017-09-15T05:18:23.228Z,16.53
2017-09-15T05:20:49.886Z,15.33
2017-09-15T05:23:16.515Z,11.70
2017-09-15T05:25:43.133Z,20.70
2017-09-15T05:28:09.754Z,14.27
2017-09-15T05:30:36.364Z,14.50
2017-09-15T05:33:02.997Z,16.47
2017-09-15T05:35:29.614Z,9.90
2017-09-15T05:37:56.236Z,15.07
2017-09-15T05:40:22.920Z,12.43
2017-09-15T05:42:49.527Z,14.60
2017-09-15T05:45:16.160Z,8.70
2017-09-15T05:47:42.777Z,9.60
2017-09-15T05:50:09.380Z,11.43
2017-09-15T05:52:36.026Z,13.93
2017-09-15T05:55:02.650Z,15.80
2017-09-15T05:57:29.294Z,16.50
2017-09-15T05:59:55.912Z,14.23
2017-09-15T06:02:22.545Z,15.43
2017-09-15T06:04:49.189Z,14.90
2017-09-15T06:07:15.823Z,15.33
2017-09-15T06:09:42.467Z,16.27
2017-09-15T06:12:09.082Z,23.47
2017-09-15T06:14:35.712Z,13.17
2017-09-15T06:17:02.368Z,11.40
2017-09-15T06:19:28.979Z,10.27
2017-09-15T06:21:55.624Z,18.70
2017-09-15T06:24:22.271Z,15.17
2017-09-15T06:26:48.890Z,15.43
2017-09-15T06:29:15.514Z,13.17
2017-09-15T06:31:42.139Z,15.07
2017-09-15T06:34:08.778Z,13.37
2017-09-15T06:36:35.406Z,12.57
2017-09-15T06:39:02.039Z,14.37
2017-09-15T06:41:28.717Z,14.00
2017-09-15T06:43:55.355Z,12.27
2017-09-15T06:46:21.987Z,12.00
2017-09-15T06:48:48.600Z,12.73
2017-09-15T06:51:15.226Z,16.73
2017-09-15T06:53:41.849Z,13.60
2017-09-15T06:56:08.469Z,14.20
2017-09-15T06:58:35.091Z,11.63
2017-09-15T07:01:01.719Z,9.23
2017-09-15T07:03:28.354Z,14.67
2017-09-15T07:05:54.971Z,27.03
2017-09-15T07:08:21.610Z,12.57
2017-09-15T07:10:48.267Z,9.10
2017-09-15T07:13:14.910Z,11.33
2017-09-15T07:15:41.528Z,22.10
2017-09-15T07:18:08.180Z,10.93
2017-09-15T07:20:34.803Z,10.40
2017-09-15T07:23:01.422Z,8.83
2017-09-15T07:25:28.058Z,11.40
2017-09-15T07:27:54.708Z,13.77
2017-09-15T07:30:22.182Z,13.57
2017-09-15T07:32:48.831Z,16.33
2017-09-15T07:35:15.452Z,13.50
2017-09-15T07:37:42.069Z,12.00
2017-09-15T07:40:08.703Z,13.27
2017-09-15T07:42:35.332Z,14.73
2017-09-15T07:45:01.960Z,16.80
2017-09-15T07:47:28.592Z,9.50
2017-09-15T07:49:55.199Z,10.30
2017-09-15T07:52:21.835Z,12.10
2017-09-15T07:54:48.462Z,6.90
2017-09-15T07:57:15.103Z,8.87
2017-09-15T07:59:41.760Z,9.80
2017-09-15T08:02:08.385Z,9.13
2017-09-15T08:04:35.002Z,5.40
2017-09-15T08:07:01.656Z,6.07
2017-09-15T08:09:28.307Z,11.47
2017-09-15T08:11:54.922Z,15.60
2017-09-15T08:14:21.547Z,13.23
2017-09-15T08:16:48.182Z,11.43
2017-09-15T08:19:14.814Z,5.50
2017-09-15T08:21:41.466Z,9.57
2017-09-15T08:24:08.067Z,10.30
2017-09-15T08:26:34.704Z,12.20
2017-09-15T08:29:01.344Z,11.73
2017-09-15T08:31:28.007Z,6.17
2017-09-15T08:33:54.640Z,5.53
2017-09-15T08:36:21.277Z,6.80
2017-09-15T08:38:47.919Z,6.23
2017-09-15T08:41:14.554Z,7.93
2017-09-15T08:43:41.162Z,14.20
2017-09-15T08:46:07.770Z,8.53
2017-09-15T08:48:34.425Z,10.20
2017-09-15T08:51:01.059Z,5.40
2017-09-15T08:53:27.683Z,5.63
2017-09-15T08:55:54.301Z,7.27
2017-09-15T08:58:20.902Z,8.10
2017-09-15T09:00:47.523Z,14.27
2017-09-15T09:03:14.195Z,5.07
2017-09-15T09:05:40.812Z,6.17
2017-09-15T09:08:07.782Z,5.40
2017-09-15T09:10:34.405Z,9.17
2017-09-15T09:13:01.036Z,6.83
2017-09-15T09:15:27.712Z,5.53
2017-09-15T09:17:54.328Z,18.63
2017-09-15T09:20:20.956Z,6.83
2017-09-15T09:22:47.562Z,5.50
2017-09-15T09:25:14.256Z,5.30
2017-09-15T09:27:40.893Z,11.70
2017-09-15T09:30:07.508Z,10.43
2017-09-15T09:32:34.134Z,8.77
2017-09-15T09:35:00.769Z,5.10
2017-09-15T09:37:27.463Z,6.87
2017-09-15T09:39:54.058Z,5.97
2017-09-15T09:42:20.731Z,5.43
2017-09-15T09:44:47.362Z,7.57
2017-09-15T09:47:13.995Z,3.53
2017-09-15T09:49:40.633Z,8.87
2017-09-15T09:52:07.267Z,7.77
2017-09-15T09:54:33.919Z,3.23
2017-09-15T09:57:00.533Z,3.83
2017-09-15T09:59:27.178Z,4.90
2017-09-15T10:01:53.788Z,3.10
2017-09-15T10:04:20.423Z,6.80
2017-09-15T10:06:47.053Z,3.40
2017-09-15T10:09:13.678Z,3.70
2017-09-15T10:11:40.310Z,3.40
2017-09-15T10:14:06.919Z,9.07
2017-09-15T10:16:33.532Z,3.67
2017-09-15T10:19:00.171Z,6.17
2017-09-15T10:21:26.813Z,5.10
2017-09-15T10:23:53.447Z,2.53
2017-09-15T10:26:20.064Z,3.90
2017-09-15T10:28:46.695Z,4.43
2017-09-15T10:31:13.373Z,3.30
2017-09-15T10:33:40.003Z,2.37
2017-09-15T10:36:06.636Z,4.77
2017-09-15T10:38:33.291Z,2.77
2017-09-15T10:40:59.919Z,3.23
2017-09-15T10:43:26.554Z,2.77
2017-09-15T10:45:53.210Z,2.40
2017-09-15T10:48:19.848Z,2.70
2017-09-15T10:50:46.482Z,2.83
2017-09-15T10:53:13.089Z,3.03
2017-09-15T10:55:39.691Z,3.47
2017-09-15T10:58:12.078Z,4.33
2017-09-15T11:00:39.112Z,3.37
2017-09-15T11:03:05.754Z,6.63
2017-09-15T11:05:32.398Z,2.77
2017-09-15T11:07:59.035Z,5.20
2017-09-15T11:10:25.682Z,4.47
2017-09-15T11:12:52.311Z,5.00
2017-09-15T11:15:18.918Z,8.17
2017-09-15T11:17:45.564Z,3.10
2017-09-15T11:20:12.190Z,8.10
2017-09-15T11:22:38.814Z,8.73
2017-09-15T11:25:05.431Z,5.23
2017-09-15T11:27:32.066Z,3.30
2017-09-15T11:29:58.670Z,5.23
2017-09-15T11:32:25.303Z,5.30
2017-09-15T11:34:51.923Z,5.40
2017-09-15T11:37:18.576Z,4.80
2017-09-15T11:39:45.206Z,5.40
2017-09-15T11:42:11.834Z,4.50
2017-09-15T11:44:38.465Z,10.80
2017-09-15T11:47:05.103Z,4.20
2017-09-15T11:49:31.734Z,7.30
2017-09-15T11:51:58.397Z,5.40
2017-09-15T11:54:25.420Z,4.97
2017-09-15T11:56:52.044Z,3.50
2017-09-15T11:59:18.681Z,3.43
2017-09-15T12:01:45.315Z,2.73
2017-09-15T12:04:11.927Z,1.50
2017-09-15T12:06:38.560Z,2.40
2017-09-15T12:09:05.192Z,5.70
2017-09-15T12:11:31.826Z,1.70
2017-09-15T12:13:58.437Z,4.93
2017-09-15T12:16:25.051Z,2.30
2017-09-15T12:18:51.710Z,2.97
2017-09-15T12:21:18.326Z,4.50
2017-09-15T12:23:44.947Z,4.30
2017-09-15T12:26:11.603Z,2.40
2017-09-15T12:28:38.238Z,2.13
2017-09-15T12:31:04.885Z,2.17
2017-09-15T12:33:31.532Z,1.97
2017-09-15T12:35:58.178Z,2.20
2017-09-15T12:38:24.799Z,1.90
2017-09-15T12:40:51.422Z,2.30
2017-09-15T12:43:18.040Z,6.90
2017-09-15T12:45:44.676Z,2.73
2017-09-15T12:48:11.308Z,2.90
2017-09-15T12:50:37.949Z,2.00
2017-09-15T12:53:04.560Z,2.87
2017-09-15T12:55:31.218Z,8.87
2017-09-15T12:57:57.846Z,4.30
2017-09-15T13:00:24.482Z,3.50
2017-09-15T13:02:51.090Z,5.13
2017-09-15T13:05:17.736Z,3.00
2017-09-15T13:07:44.404Z,7.57
2017-09-15T13:10:11.030Z,2.93
2017-09-15T13:12:37.668Z,5.20
2017-09-15T13:15:04.316Z,6.17
2017-09-15T13:17:30.943Z,7.47
2017-09-15T13:19:57.605Z,5.03
2017-09-15T13:22:24.263Z,5.23
2017-09-15T13:24:51.632Z,5.30
2017-09-15T13:27:18.247Z,9.37
2017-09-15T13:29:44.875Z,5.50
2017-09-15T13:32:11.504Z,3.70
2017-09-15T13:34:38.134Z,4.77
2017-09-15T13:37:04.788Z,3.57
2017-09-15T13:39:31.420Z,3.90
2017-09-15T13:41:58.039Z,4.43
2017-09-15T13:44:24.722Z,5.43
2017-09-15T13:46:51.351Z,3.37
2017-09-15T13:49:18.003Z,10.77
2017-09-15T13:51:44.651Z,6.30
2017-09-15T13:54:11.359Z,4.87
2017-09-15T13:56:37.980Z,4.27
2017-09-15T13:59:04.605Z,8.47
2017-09-15T14:01:31.252Z,5.20
2017-09-15T14:03:57.902Z,3.60
2017-09-15T14:06:24.538Z,5.33
2017-09-15T14:08:51.192Z,4.23
2017-09-15T14:11:17.827Z,6.80
2017-09-15T14:13:44.463Z,6.53
2017-09-15T14:16:11.107Z,6.37
2017-09-15T14:18:37.735Z,5.73
2017-09-15T14:21:04.345Z,5.87
2017-09-15T14:23:30.981Z,6.03
2017-09-15T14:25:57.625Z,12.53
2017-09-15T14:28:24.260Z,5.13
2017-09-15T14:30:50.886Z,10.90
2017-09-15T14:33:17.504Z,4.30
2017-09-15T14:35:44.205Z,5.80
2017-09-15T14:38:10.825Z,2.40
2017-09-15T14:40:37.496Z,3.00
2017-09-15T14:43:04.154Z,4.97
2017-09-15T14:45:30.794Z,3.47
2017-09-15T14:47:57.432Z,5.93
2017-09-15T14:50:24.041Z,3.03
2017-09-15T14:52:50.688Z,7.80
2017-09-15T14:55:17.348Z,4.10
2017-09-15T14:57:43.978Z,3.67
2017-09-15T15:00:10.614Z,3.77
2017-09-15T15:02:37.258Z,4.67
2017-09-15T15:05:03.893Z,5.50
2017-09-15T15:07:30.507Z,5.30
2017-09-15T15:09:57.166Z,10.13
2017-09-15T15:12:23.808Z,10.23
2017-09-15T15:14:50.457Z,3.57
2017-09-15T15:17:17.062Z,3.20
2017-09-15T15:19:43.707Z,4.57
2017-09-15T15:22:10.322Z,4.70
2017-09-15T15:24:36.992Z,4.63
2017-09-15T15:27:03.660Z,4.87
2017-09-15T15:29:30.306Z,3.90
2017-09-15T15:31:56.934Z,12.10
2017-09-15T15:34:23.609Z,5.70
2017-09-15T15:36:50.272Z,8.50
2017-09-15T15:39:16.899Z,8.87
2017-09-15T15:41:43.558Z,11.90
2017-09-15T15:44:10.208Z,7.70
2017-09-15T15:46:36.823Z,11.93
2017-09-15T15:49:03.431Z,8.93
2017-09-15T15:51:30.071Z,7.53
2017-09-15T15:53:56.674Z,6.00
2017-09-15T15:56:23.311Z,8.23
2017-09-15T15:58:49.936Z,7.60
2017-09-15T16:01:16.564Z,6.43
2017-09-15T16:03:43.224Z,8.30
2017-09-15T16:06:09.842Z,14.73
2017-09-15T16:08:36.482Z,11.00
2017-09-15T16:11:03.092Z,7.23
2017-09-15T16:13:29.746Z,10.67
2017-09-15T16:15:56.363Z,9.00
2017-09-15T16:18:23.006Z,7.30
2017-09-15T16:20:49.665Z,9.83
2017-09-15T16:23:16.279Z,7.27
2017-09-15T16:25:42.893Z,8.77
2017-09-15T16:28:09.526Z,6.73
2017-09-15T16:30:36.176Z,6.00
2017-09-15T16:33:02.827Z,5.70
2017-09-15T16:35:29.453Z,6.33
2017-09-15T16:38:01.833Z,6.40
2017-09-15T16:40:34.236Z,4.80
2017-09-15T16:43:06.756Z,8.30
2017-09-15T16:45:39.097Z,7.13
2017-09-15T16:48:11.408Z,5.23
2017-09-15T16:50:38.036Z,6.23
2017-09-15T16:53:04.670Z,4.20
2017-09-15T16:55:31.330Z,5.20
2017-09-15T16:57:58.129Z,5.67
2017-09-15T17:00:24.767Z,7.87
2017-09-15T17:02:51.406Z,5.93
2017-09-15T17:05:18.036Z,6.77
2017-09-15T17:07:44.667Z,6.07
2017-09-15T17:10:11.316Z,6.93
2017-09-15T17:12:37.928Z,6.90
2017-09-15T17:15:04.564Z,8.40
2017-09-15T17:17:31.191Z,9.10
2017-09-15T17:19:57.808Z,12.13
2017-09-15T17:22:24.467Z,12.47
2017-09-15T17:24:51.109Z,8.13
2017-09-15T17:27:17.766Z,14.73
2017-09-15T17:29:44.376Z,8.40
2017-09-15T17:32:11.018Z,8.87
2017-09-15T17:34:37.668Z,10.23
2017-09-15T17:37:04.299Z,8.87
2017-09-15T17:39:30.959Z,6.97
2017-09-15T17:41:57.587Z,6.93
2017-09-15T17:44:24.236Z,7.87
2017-09-15T17:46:50.859Z,6.97
2017-09-15T17:49:17.471Z,7.80
2017-09-15T17:51:44.111Z,12.07
2017-09-15T17:54:10.763Z,16.13
2017-09-15T17:56:37.415Z,7.40
2017-09-15T17:59:04.057Z,10.00
2017-09-15T18:01:30.668Z,11.93
2017-09-15T18:03:57.302Z,6.10
2017-09-15T18:06:23.930Z,4.10
2017-09-15T18:08:50.561Z,4.73
2017-09-15T18:11:17.215Z,5.80
2017-09-15T18:13:43.849Z,4.40
2017-09-15T18:16:10.470Z,5.00
2017-09-15T18:18:37.103Z,5.30
2017-09-15T18:21:03.748Z,5.40
2017-09-15T18:23:30.356Z,12.23
2017-09-15T18:25:57.002Z,4.63
2017-09-15T18:28:23.609Z,4.37
2017-09-15T18:30:50.279Z,5.60
2017-09-15T18:33:16.884Z,8.33
2017-09-15T18:35:43.540Z,4.43
2017-09-15T18:38:10.158Z,5.50
2017-09-15T18:40:36.804Z,3.57
2017-09-15T18:43:03.429Z,4.70
2017-09-15T18:45:30.064Z,5.10
2017-09-15T18:47:56.700Z,4.13
2017-09-15T18:53:08.930Z,4.03
2017-09-15T18:55:35.591Z,4.20
2017-09-15T18:58:02.444Z,4.17
2017-09-15T19:00:29.108Z,5.73
2017-09-15T19:02:55.751Z,4.33
2017-09-15T19:05:22.455Z,5.47
2017-09-15T19:07:49.082Z,4.77
2017-09-15T19:10:15.707Z,8.10
2017-09-15T19:12:42.352Z,4.80
2017-09-15T19:15:08.991Z,15.30
2017-09-15T19:17:35.654Z,9.43
2017-09-15T19:20:02.295Z,11.77
2017-09-15T19:22:28.990Z,10.50
2017-09-15T19:24:55.665Z,5.20
2017-09-15T19:27:22.274Z,6.97
2017-09-15T19:29:48.923Z,6.70
2017-09-15T19:32:15.548Z,6.50
2017-09-15T19:34:42.172Z,6.60
2017-09-15T19:37:08.833Z,7.63
2017-09-15T19:39:35.477Z,6.50
2017-09-15T19:42:02.091Z,6.40
2017-09-15T19:44:28.712Z,5.50
2017-09-15T19:46:55.349Z,6.63
2017-09-15T19:49:22.017Z,5.83
2017-09-15T19:51:48.687Z,4.67
2017-09-15T19:54:15.310Z,6.63
2017-09-15T19:56:41.968Z,6.40
2017-09-15T19:59:08.588Z,6.17
2017-09-15T20:01:35.209Z,6.13
2017-09-15T20:04:01.878Z,5.67
2017-09-15T20:06:28.507Z,5.77
2017-09-15T20:08:55.143Z,9.07
2017-09-15T20:11:21.800Z,6.40
2017-09-15T20:13:48.414Z,9.37
2017-09-15T20:16:15.019Z,6.43
2017-09-15T20:18:41.671Z,6.10
2017-09-15T20:21:08.347Z,10.70
2017-09-15T20:23:34.984Z,6.10
2017-09-15T20:26:01.639Z,13.07
2017-09-15T20:28:28.264Z,8.10
2017-09-15T20:30:54.924Z,12.63
2017-09-15T20:33:21.577Z,6.63
2017-09-15T20:35:48.212Z,4.67
2017-09-15T20:38:14.849Z,6.70
2017-09-15T20:40:41.475Z,6.17
2017-09-15T20:43:08.096Z,5.40
2017-09-15T20:45:34.760Z,7.70
2017-09-15T20:48:01.374Z,5.93
2017-09-15T20:50:27.998Z,7.43
2017-09-15T20:52:54.640Z,7.87
2017-09-15T20:55:22.009Z,6.27
2017-09-15T20:57:48.635Z,6.00
2017-09-15T21:00:15.299Z,5.50
2017-09-15T21:02:41.937Z,6.13
2017-09-15T21:05:08.570Z,9.57
2017-09-15T21:07:35.205Z,7.30
2017-09-15T21:10:01.854Z,6.47
2017-09-15T21:12:28.478Z,6.70
2017-09-15T21:14:55.109Z,6.83
2017-09-15T21:17:21.751Z,7.13
2017-09-15T21:19:48.392Z,10.03
2017-09-15T21:22:15.034Z,5.93
2017-09-15T21:24:41.680Z,7.90
2017-09-15T21:27:08.307Z,7.37
2017-09-15T21:29:34.941Z,9.33
2017-09-15T21:32:01.561Z,8.50
2017-09-15T21:34:28.208Z,8.23
2017-09-15T21:36:54.822Z,7.37
2017-09-15T21:39:21.467Z,6.60
2017-09-15T21:41:48.102Z,7.10
2017-09-15T21:44:14.728Z,7.77
2017-09-15T21:46:41.389Z,9.57
2017-09-15T21:49:08.007Z,7.37
2017-09-15T21:51:34.632Z,8.57
2017-09-15T21:54:01.293Z,8.23
2017-09-15T21:56:28.011Z,12.10
2017-09-15T21:58:54.663Z,11.27
2017-09-15T22:01:21.295Z,13.62
2017-09-15T22:03:53.639Z,8.60
2017-09-15T22:06:20.295Z,7.12
2017-09-15T22:08:46.975Z,6.07
2017-09-15T22:11:13.606Z,15.10
2017-09-15T22:13:40.267Z,13.27
2017-09-15T22:16:06.902Z,6.80
2017-09-15T22:18:33.566Z,7.62
2017-09-15T22:21:00.203Z,8.20
2017-09-15T22:23:26.839Z,11.83
2017-09-15T22:25:53.507Z,11.10
2017-09-15T22:28:20.128Z,8.07
2017-09-15T22:30:46.750Z,9.20
2017-09-15T22:33:13.373Z,7.63
2017-09-15T22:35:40.045Z,8.33
2017-09-15T22:38:06.665Z,15.17
2017-09-15T22:40:35.229Z,8.83
2017-09-15T22:43:01.907Z,7.70
2017-09-15T22:45:28.569Z,8.48
2017-09-15T22:47:55.219Z,16.50
2017-09-15T22:50:21.866Z,12.95
2017-09-15T22:52:48.494Z,9.70
2017-09-15T22:55:15.140Z,9.23
2017-09-15T22:57:41.789Z,13.13
2017-09-15T23:00:08.419Z,9.07
2017-09-15T23:02:35.070Z,12.43
2017-09-15T23:05:01.703Z,9.05
2017-09-15T23:07:28.349Z,9.50
2017-09-15T23:09:54.978Z,8.88
2017-09-15T23:12:21.607Z,9.97
2017-09-15T23:14:48.260Z,6.12
2017-09-15T23:17:14.861Z,7.30
2017-09-15T23:19:41.556Z,5.63
2017-09-15T23:22:08.167Z,7.07
2017-09-15T23:24:34.818Z,10.55
2017-09-15T23:27:01.467Z,12.50
2017-09-15T23:29:28.109Z,10.75
2017-09-15T23:31:54.748Z,11.45
2017-09-15T23:34:21.424Z,10.52
2017-09-15T23:36:48.069Z,5.80
2017-09-15T23:39:14.690Z,11.38
2017-09-15T23:41:41.340Z,5.65
2017-09-15T23:44:07.967Z,5.15
2017-09-15T23:46:34.599Z,8.90
2017-09-15T23:49:01.224Z,4.03
2017-09-15T23:51:27.878Z,3.60
2017-09-15T23:53:54.511Z,7.23
2017-09-15T23:56:21.142Z,7.95
2017-09-15T23:58:47.776Z,6.62
